Time;durP1;ratioP1;P1;durP2;ratioP2;P2;SDS_P1;SDS_P2;PMS_P1;PMS_P2;Temp;Humidity;BMP_temperature;BMP_pressure;BME280_temperature;BME280_humidity;BME280_pressure;Samples;Min_cycle;Max_cycle;Signal;HPM_P1;HPM_P2
2022/09/02 00:01:22;;;;;;;3.00;2.40;;;;;;;16.70;65.71;95704.34;4974540;28;20197;-81
2022/09/02 00:03:49;;;;;;;2.55;2.35;;;;;;;16.56;66.18;95694.97;4970023;28;20634;-80
2022/09/02 00:06:18;;;;;;;2.50;2.28;;;;;;;16.44;66.30;95702.66;4974338;28;20574;-80
2022/09/02 00:08:45;;;;;;;3.35;2.50;;;;;;;16.38;67.45;95697.50;4974955;28;20246;-81
2022/09/02 00:11:14;;;;;;;2.88;2.50;;;;;;;16.36;67.05;95694.31;4973973;28;20193;-80
2022/09/02 00:13:41;;;;;;;4.03;2.58;;;;;;;16.36;66.92;95687.31;4973872;28;20244;-82
2022/09/02 00:16:09;;;;;;;3.15;2.72;;;;;;;16.49;66.83;95696.84;4974471;28;20228;-80
2022/09/02 00:18:36;;;;;;;2.63;2.42;;;;;;;16.43;67.14;95693.28;4974829;28;20220;-80
2022/09/02 00:21:02;;;;;;;2.65;2.30;;;;;;;16.46;67.45;95686.88;4974580;28;20196;-81
2022/09/02 00:23:30;;;;;;;3.45;2.50;;;;;;;16.50;67.24;95683.66;4974217;28;20204;-81
2022/09/02 00:25:57;;;;;;;2.75;2.55;;;;;;;16.51;67.62;95687.03;4972424;28;20570;-80
2022/09/02 00:28:24;;;;;;;3.00;2.42;;;;;;;16.61;66.85;95681.34;4973326;28;20263;-81
2022/09/02 00:30:50;;;;;;;2.90;2.55;;;;;;;16.60;66.71;95677.97;4973567;28;20207;-81
2022/09/02 00:33:17;;;;;;;2.63;2.42;;;;;;;16.67;66.48;95676.16;4974263;28;20223;-81
2022/09/02 00:35:43;;;;;;;2.80;2.45;;;;;;;16.61;66.79;95676.97;4973928;28;20228;-80
2022/09/02 00:38:11;;;;;;;2.80;2.42;;;;;;;16.56;66.85;95680.19;4975000;28;20204;-79
2022/09/02 00:40:39;;;;;;;2.88;2.40;;;;;;;16.58;66.99;95679.97;4973083;28;20786;-81
2022/09/02 00:43:07;;;;;;;3.05;2.70;;;;;;;16.59;66.85;95677.16;4974917;28;20231;-82
2022/09/02 00:45:34;;;;;;;2.75;2.55;;;;;;;16.52;67.21;95675.63;4973200;28;20231;-81
2022/09/02 00:48:01;;;;;;;2.63;2.42;;;;;;;16.35;68.27;95674.56;4974469;28;20283;-80
2022/09/02 00:50:32;;;;;;;4.65;2.88;;;;;;;16.34;67.90;95678.16;4973088;28;20220;-80
2022/09/02 00:53:02;;;;;;;2.60;2.40;;;;;;;16.26;68.52;95678.41;4974565;28;20200;-80
2022/09/02 00:55:31;;;;;;;3.78;2.83;;;;;;;16.34;68.68;95665.16;4976986;28;20232;-81
2022/09/02 00:58:04;;;;;;;2.92;2.70;;;;;;;16.32;68.17;95670.56;4977701;28;20199;-79
2022/09/02 01:00:36;;;;;;;3.08;2.83;;;;;;;16.30;68.12;95675.19;4976857;28;20247;-80
2022/09/02 01:03:05;;;;;;;3.13;2.88;;;;;;;16.26;69.15;95668.81;4977447;28;20219;-81
2022/09/02 01:05:36;;;;;;;3.20;2.90;;;;;;;16.23;68.90;95666.63;4976966;28;20275;-80
2022/09/02 01:08:06;;;;;;;3.42;3.13;;;;;;;16.14;69.14;95667.88;4976365;28;20622;-81
2022/09/02 01:10:34;;;;;;;3.25;2.80;;;;;;;16.13;69.35;95672.28;4976593;28;20259;-79
2022/09/02 01:13:05;;;;;;;4.63;2.90;;;;;;;16.24;69.19;95671.59;4977573;28;20223;-80
2022/09/02 01:15:35;;;;;;;3.08;2.67;;;;;;;16.19;69.79;95670.63;4976495;28;20232;-81
2022/09/02 01:18:02;;;;;;;2.90;2.70;;;;;;;16.09;69.83;95672.91;4976637;28;20196;-82
2022/09/02 01:20:28;;;;;;;3.08;2.88;;;;;;;15.92;71.01;95671.81;4975613;28;20223;-83
2022/09/02 01:22:57;;;;;;;3.28;2.97;;;;;;;15.92;70.19;95675.19;4976976;28;20204;-82
2022/09/02 01:25:27;;;;;;;3.05;2.85;;;;;;;15.99;70.58;95673.34;4975311;28;20232;-82
2022/09/02 01:27:53;;;;;;;3.28;2.97;;;;;;;16.00;70.57;95674.13;4970656;28;20200;-82
2022/09/02 01:30:24;;;;;;;3.13;2.92;;;;;;;16.02;70.61;95670.34;4974430;28;20208;-82
2022/09/02 01:32:51;;;;;;;3.15;2.85;;;;;;;16.19;70.23;95668.03;4974080;28;20196;-82
2022/09/02 01:35:18;;;;;;;2.95;2.75;;;;;;;16.28;69.25;95651.22;4974058;28;20227;-82
2022/09/02 01:37:47;;;;;;;3.33;2.70;;;;;;;16.34;69.17;95654.78;4974543;28;20224;-82
2022/09/02 01:40:17;;;;;;;3.15;2.85;;;;;;;16.24;69.31;95648.22;4975787;28;20220;-82
2022/09/02 01:42:47;;;;;;;3.50;3.20;;;;;;;16.09;70.05;95658.13;4976731;28;20207;-82
2022/09/02 01:45:15;;;;;;;2.97;2.78;;;;;;;16.06;70.21;95657.72;4976784;28;20231;-82
2022/09/02 01:47:41;;;;;;;3.00;2.80;;;;;;;15.89;70.76;95647.84;4977320;28;20787;-82
2022/09/02 01:50:09;;;;;;;3.47;2.70;;;;;;;15.80;71.38;95654.25;4977121;28;20274;-82
2022/09/02 01:52:35;;;;;;;3.33;3.03;;;;;;;15.85;70.87;95654.44;4977380;28;20204;-82
2022/09/02 01:55:02;;;;;;;3.13;2.83;;;;;;;15.82;71.42;95652.25;4976200;28;20844;-82
2022/09/02 01:57:30;;;;;;;3.80;3.42;;;;;;;15.82;71.33;95652.25;4976215;28;20201;-82
2022/09/02 01:59:56;;;;;;;3.95;2.95;;;;;;;15.91;71.26;95649.44;4976352;28;20223;-81
2022/09/02 02:02:23;;;;;;;3.70;3.40;;;;;;;15.85;71.16;95640.66;4975886;28;20232;-82
2022/09/02 02:04:50;;;;;;;3.25;3.00;;;;;;;15.86;71.18;95640.47;4975343;28;20231;-82
2022/09/02 02:07:19;;;;;;;3.50;3.20;;;;;;;15.69;71.75;95649.72;4975516;28;20208;-82
2022/09/02 02:09:45;;;;;;;3.33;3.03;;;;;;;15.77;71.34;95643.50;4974633;28;20282;-82
2022/09/02 02:12:12;;;;;;;3.50;3.20;;;;;;;15.67;71.87;95649.13;4975574;28;20200;-82
2022/09/02 02:14:39;;;;;;;5.47;3.35;;;;;;;15.62;73.26;95651.53;4975039;28;20193;-82
2022/09/02 02:17:06;;;;;;;3.60;3.30;;;;;;;15.46;74.02;95649.38;4976058;28;20204;-82
2022/09/02 02:19:33;;;;;;;3.88;3.17;;;;;;;15.52;73.11;95649.38;4975940;28;20275;-82
2022/09/02 02:22:00;;;;;;;3.20;2.90;;;;;;;15.68;72.47;95647.34;4975284;28;20607;-82
2022/09/02 02:24:26;;;;;;;4.72;3.08;;;;;;;15.73;72.21;95647.53;4974886;28;20219;-82
2022/09/02 02:26:53;;;;;;;5.53;3.17;;;;;;;15.78;71.97;95645.06;4976145;28;20202;-82
2022/09/02 02:29:20;;;;;;;3.90;3.15;;;;;;;15.72;72.54;95640.75;4975972;28;20219;-82
2022/09/02 02:31:48;;;;;;;3.90;3.10;;;;;;;15.71;72.48;95644.34;4973932;28;20196;-82
2022/09/02 02:34:14;;;;;;;3.63;3.00;;;;;;;15.76;71.91;95642.72;4975766;28;20196;-82
2022/09/02 02:36:41;;;;;;;3.25;3.05;;;;;;;15.66;72.41;95644.16;4974464;28;20219;-82
2022/09/02 02:39:10;;;;;;;3.50;3.10;;;;;;;15.65;72.40;95635.56;4974804;28;20231;-82
2022/09/02 02:41:37;;;;;;;3.45;3.15;;;;;;;15.49;72.98;95636.78;4974046;28;20204;-82
2022/09/02 02:44:04;;;;;;;3.50;3.20;;;;;;;15.49;73.56;95633.41;4976111;28;20196;-83
2022/09/02 02:46:32;;;;;;;3.78;3.42;;;;;;;15.51;73.07;95628.81;4974939;28;20228;-82
2022/09/02 02:49:00;;;;;;;3.58;3.28;;;;;;;15.46;73.35;95629.41;4974666;28;20216;-82
2022/09/02 02:51:27;;;;;;;3.10;2.90;;;;;;;15.46;73.83;95626.03;4974515;28;20196;-82
2022/09/02 02:53:53;;;;;;;3.10;2.80;;;;;;;15.53;73.49;95629.41;4976359;28;20719;-82
2022/09/02 02:56:20;;;;;;;3.35;3.05;;;;;;;15.50;73.47;95629.81;4975424;28;20248;-82
2022/09/02 02:58:46;;;;;;;3.38;2.95;;;;;;;15.45;73.77;95633.00;4974834;28;20224;-82
2022/09/02 03:01:13;;;;;;;3.65;3.15;;;;;;;15.38;73.64;95621.88;4975475;28;20203;-82
2022/09/02 03:03:41;;;;;;;3.85;3.53;;;;;;;15.32;74.14;95633.06;4976238;28;20739;-83
2022/09/02 03:06:09;;;;;;;4.78;3.20;;;;;;;15.33;74.50;95626.88;4974580;28;20232;-83
2022/09/02 03:08:35;;;;;;;4.50;3.25;;;;;;;15.41;73.53;95631.03;4974569;28;20224;-82
2022/09/02 03:11:04;;;;;;;4.50;3.35;;;;;;;15.37;74.37;95625.47;4974985;28;20613;-82
2022/09/02 03:13:32;;;;;;;3.80;3.50;;;;;;;15.38;73.75;95621.88;4975378;28;20287;-82
2022/09/02 03:15:58;;;;;;;3.55;3.25;;;;;;;15.35;74.12;95614.50;4974115;28;20247;-82
2022/09/02 03:18:25;;;;;;;3.80;3.50;;;;;;;15.28;74.63;95623.28;4974829;28;20227;-83
2022/09/02 03:20:51;;;;;;;3.80;3.50;;;;;;;15.39;74.25;95620.09;4974768;28;20200;-83
2022/09/02 03:23:19;;;;;;;5.28;3.33;;;;;;;15.36;74.35;95623.88;4974874;28;20359;-82
2022/09/02 03:25:46;;;;;;;3.40;3.10;;;;;;;15.31;74.40;95615.13;4973198;28;20283;-82
2022/09/02 03:28:14;;;;;;;4.93;3.42;;;;;;;15.28;74.42;95613.72;4975067;28;20267;-82
2022/09/02 03:30:41;;;;;;;3.80;3.45;;;;;;;15.35;74.84;95614.50;4974185;28;20200;-82
2022/09/02 03:33:08;;;;;;;3.92;3.42;;;;;;;15.40;73.86;95612.06;4974816;28;20200;-82
2022/09/02 03:35:39;;;;;;;3.95;3.55;;;;;;;15.32;74.51;95616.72;4973904;28;20251;-83
2022/09/02 03:38:06;;;;;;;3.88;3.50;;;;;;;15.18;74.95;95619.34;4974772;28;20184;-82
2022/09/02 03:40:34;;;;;;;3.80;3.50;;;;;;;15.14;75.23;95612.97;4973826;28;20279;-82
2022/09/02 03:43:01;;;;;;;4.18;3.75;;;;;;;15.04;75.58;95614.38;4974768;28;20203;-82
2022/09/02 03:45:27;;;;;;;3.83;3.53;;;;;;;15.09;75.35;95614.56;4970368;28;20242;-82
2022/09/02 03:47:54;;;;;;;4.60;3.42;;;;;;;15.08;75.22;95618.16;4974734;28;20204;-82
2022/09/02 03:50:24;;;;;;;3.65;3.35;;;;;;;15.02;76.13;95617.16;4973177;28;20224;-82
2022/09/02 03:52:52;;;;;;;5.40;3.70;;;;;;;15.04;75.88;95615.19;4973093;28;20200;-82
2022/09/02 03:55:19;;;;;;;4.45;3.42;;;;;;;15.06;75.93;95609.78;4973990;28;20595;-82
2022/09/02 03:57:46;;;;;;;4.22;3.42;;;;;;;15.01;76.27;95609.63;4973840;28;20616;-82
2022/09/02 04:00:16;;;;;;;4.95;3.80;;;;;;;15.02;76.31;95608.59;4973077;28;20243;-82
2022/09/02 04:02:43;;;;;;;4.13;3.75;;;;;;;14.97;76.18;95605.84;4973147;28;20208;-81
2022/09/02 04:05:11;;;;;;;4.03;3.67;;;;;;;14.90;76.50;95607.63;4973116;28;20278;-81
2022/09/02 04:07:38;;;;;;;4.43;3.85;;;;;;;14.81;76.84;95613.06;4972920;28;20208;-82
2022/09/02 04:10:07;;;;;;;3.85;3.55;;;;;;;14.74;77.39;95604.47;4973054;28;20220;-81
2022/09/02 04:12:34;;;;;;;3.65;3.45;;;;;;;14.74;77.37;95604.47;4972802;28;20637;-82
2022/09/02 04:15:02;;;;;;;3.88;3.53;;;;;;;14.76;77.58;95601.69;4972535;28;20224;-82
2022/09/02 04:17:28;;;;;;;4.40;3.53;;;;;;;14.61;78.11;95604.50;4973094;28;20200;-82
2022/09/02 04:19:55;;;;;;;3.95;3.60;;;;;;;14.58;78.57;95606.69;4973141;28;20771;-82
2022/09/02 04:22:21;;;;;;;4.22;3.90;;;;;;;14.59;78.55;95603.91;4971069;28;20229;-82
2022/09/02 04:24:48;;;;;;;3.88;3.55;;;;;;;14.60;78.77;95604.69;4970687;28;20235;-81
2022/09/02 04:27:14;;;;;;;4.18;3.78;;;;;;;14.69;78.32;95601.69;4975672;28;20208;-82
2022/09/02 04:29:41;;;;;;;4.55;3.72;;;;;;;14.63;78.20;95604.28;4977275;28;20766;-82
2022/09/02 04:32:08;;;;;;;4.28;3.88;;;;;;;14.64;78.08;95608.47;4976398;28;20208;-82
2022/09/02 04:34:35;;;;;;;5.35;4.05;;;;;;;14.61;78.61;95607.09;4978246;28;20664;-83
2022/09/02 04:37:01;;;;;;;4.07;3.78;;;;;;;14.68;78.21;95605.28;4975304;28;20270;-82
2022/09/02 04:39:28;;;;;;;3.83;3.50;;;;;;;14.73;78.23;95612.44;4976169;28;20263;-83
2022/09/02 04:41:55;;;;;;;4.25;3.90;;;;;;;14.64;78.56;95614.44;4964072;28;20216;-82
2022/09/02 04:44:22;;;;;;;5.45;4.90;;;;;;;14.61;79.00;95609.69;4970988;28;20228;-81
2022/09/02 04:46:48;;;;;;;4.10;3.70;;;;;;;14.73;77.79;95607.25;4970488;28;20231;-82
2022/09/02 04:49:16;;;;;;;4.15;3.75;;;;;;;14.56;79.09;95608.69;4976509;28;20250;-81
2022/09/02 04:51:43;;;;;;;4.07;3.67;;;;;;;14.64;78.51;95606.66;4974334;28;20204;-82
2022/09/02 04:54:09;;;;;;;4.43;4.03;;;;;;;14.64;78.73;95605.88;4976305;28;20196;-83
2022/09/02 04:56:37;;;;;;;4.75;4.30;;;;;;;14.77;78.02;95598.91;4978198;28;20239;-82
2022/09/02 04:59:04;;;;;;;4.75;4.40;;;;;;;14.84;78.06;95609.22;4977973;28;20231;-82
2022/09/02 05:01:33;;;;;;;5.93;3.80;;;;;;;14.89;77.65;95600.84;4977163;28;20212;-82
2022/09/02 05:04:01;;;;;;;4.45;4.05;;;;;;;14.97;77.39;95609.22;4979038;28;20235;-82
2022/09/02 05:06:30;;;;;;;4.40;4.00;;;;;;;14.95;78.74;95618.19;4977292;28;20307;-82
2022/09/02 05:08:58;;;;;;;5.30;4.32;;;;;;;14.86;78.42;95610.63;4978202;28;20231;-83
2022/09/02 05:11:27;;;;;;;6.07;4.38;;;;;;;14.89;78.40;95612.03;4977966;28;20641;-82
2022/09/02 05:13:57;;;;;;;5.25;4.75;;;;;;;14.87;78.50;95614.00;4974853;28;20212;-83
2022/09/02 05:16:25;;;;;;;5.32;4.55;;;;;;;14.87;78.86;95616.59;4976807;28;20224;-83
2022/09/02 05:18:53;;;;;;;5.68;4.88;;;;;;;14.83;78.78;95618.81;4976489;28;20220;-82
2022/09/02 05:21:21;;;;;;;4.35;4.05;;;;;;;14.90;79.23;95610.22;4975548;28;20200;-80
2022/09/02 05:23:49;;;;;;;6.43;4.47;;;;;;;14.94;79.41;95612.22;4976726;28;20215;-80
2022/09/02 05:26:16;;;;;;;5.85;4.57;;;;;;;15.04;78.50;95612.59;4976869;28;20235;-81
2022/09/02 05:28:43;;;;;;;6.53;4.72;;;;;;;15.07;78.46;95621.75;4976896;28;20274;-81
2022/09/02 05:31:12;;;;;;;4.43;4.13;;;;;;;15.06;78.61;95618.38;4976036;28;20240;-79
2022/09/02 05:33:40;;;;;;;5.20;4.70;;;;;;;15.04;78.24;95620.34;4975745;28;20246;-80
2022/09/02 05:36:11;;;;;;;5.97;5.43;;;;;;;15.00;78.45;95621.00;4975846;28;20255;-82
2022/09/02 05:38:38;;;;;;;5.55;4.93;;;;;;;14.91;78.89;95620.41;4973227;28;20192;-82
2022/09/02 05:41:07;;;;;;;5.75;5.22;;;;;;;14.88;79.33;95617.41;4974277;28;20192;-83
2022/09/02 05:43:35;;;;;;;4.75;4.35;;;;;;;15.00;78.92;95621.78;4955776;28;20859;-83
2022/09/02 05:46:06;;;;;;;5.03;4.55;;;;;;;15.06;79.58;95617.56;4970857;28;20906;-83
2022/09/02 05:51:18;;;;;;;4.93;4.40;;;;;;;15.23;77.76;95617.91;4976097;28;20199;-80
2022/09/02 05:53:44;;;;;;;4.75;4.10;;;;;;;15.28;77.81;95618.91;4976003;28;20207;-80
2022/09/02 05:56:12;;;;;;;5.00;4.55;;;;;;;15.23;77.83;95613.53;4976982;28;20660;-81
2022/09/02 05:58:39;;;;;;;4.68;4.28;;;;;;;15.17;78.30;95617.75;4976536;28;20224;-83
2022/09/02 06:01:09;;;;;;;5.20;4.28;;;;;;;15.26;77.80;95618.31;4976278;28;20204;-82
2022/09/02 06:03:35;;;;;;;6.85;4.57;;;;;;;15.24;77.92;95609.94;4976059;28;20871;-83
2022/09/02 06:06:01;;;;;;;5.10;4.28;;;;;;;15.23;78.01;95617.91;4973848;28;20230;-81
2022/09/02 06:08:28;;;;;;;5.15;4.63;;;;;;;15.23;78.78;95613.53;4974712;28;20204;-82
2022/09/02 06:10:55;;;;;;;4.50;4.10;;;;;;;15.24;79.38;95617.72;4974954;28;20200;-83
2022/09/02 06:13:22;;;;;;;5.18;4.38;;;;;;;15.31;77.69;95617.69;4975748;28;20291;-82
2022/09/02 06:15:49;;;;;;;5.78;4.55;;;;;;;15.29;78.26;95611.91;4975059;28;20235;-83
2022/09/02 06:18:17;;;;;;;4.63;4.22;;;;;;;15.30;78.12;95603.94;4974546;28;20707;-80
2022/09/02 06:20:46;;;;;;;4.60;4.20;;;;;;;15.30;78.76;95605.72;4974518;28;20231;-81
2022/09/02 06:23:13;;;;;;;4.80;4.30;;;;;;;15.41;77.39;95607.69;4969780;28;20196;-80
2022/09/02 06:25:41;;;;;;;4.70;4.18;;;;;;;15.52;76.82;95597.47;4974283;28;20228;-81
2022/09/02 06:28:09;;;;;;;12.85;11.55;;;;;;;15.58;76.89;95601.06;4972133;28;20247;-80
2022/09/02 06:30:38;;;;;;;6.30;4.70;;;;;;;15.68;76.28;95598.03;4974059;28;20593;-82
2022/09/02 06:33:05;;;;;;;4.97;4.35;;;;;;;15.67;76.08;95599.03;4974964;28;20796;-79
2022/09/02 06:35:36;;;;;;;4.40;4.10;;;;;;;15.66;77.13;95602.63;4974621;28;20258;-79
2022/09/02 06:38:03;;;;;;;4.88;4.00;;;;;;;15.66;76.34;95602.63;4974661;28;20211;-79
2022/09/02 06:40:30;;;;;;;4.55;4.15;;;;;;;15.74;76.21;95599.78;4974359;28;20220;-81
2022/09/02 06:42:56;;;;;;;5.70;4.32;;;;;;;15.86;74.78;95601.50;4975670;28;20200;-81
2022/09/02 06:45:23;;;;;;;4.65;3.97;;;;;;;15.90;75.29;95594.09;4974156;28;20224;-82
2022/09/02 06:47:53;;;;;;;6.35;4.05;;;;;;;16.14;74.55;95595.16;4973881;28;20204;-82
2022/09/02 06:50:20;;;;;;;4.30;4.00;;;;;;;16.12;73.39;95589.38;4972140;28;20314;-83
2022/09/02 06:52:49;;;;;;;4.38;3.97;;;;;;;16.24;73.49;95593.66;4973241;28;20204;-82
2022/09/02 06:55:16;;;;;;;7.57;3.85;;;;;;;16.40;73.66;95597.53;4974128;28;20260;-83
2022/09/02 06:57:43;;;;;;;4.20;3.90;;;;;;;16.51;71.94;95594.28;4973959;28;20212;-82
2022/09/02 07:00:11;;;;;;;3.80;3.50;;;;;;;16.64;71.99;95602.97;4973091;28;20224;-81
2022/09/02 07:02:38;;;;;;;4.10;3.70;;;;;;;16.68;70.56;95606.75;4974777;28;20251;-83
2022/09/02 07:05:08;;;;;;;4.13;3.80;;;;;;;16.71;70.56;95598.53;4973036;28;20588;-82
2022/09/02 07:07:36;;;;;;;4.60;4.10;;;;;;;16.93;71.13;95597.13;4974075;28;20319;-82
2022/09/02 07:10:06;;;;;;;3.67;3.30;;;;;;;17.05;69.83;95605.78;4972435;28;20635;-81
2022/09/02 07:12:34;;;;;;;3.72;3.42;;;;;;;17.15;70.18;95602.66;4974137;28;20203;-82
2022/09/02 07:15:00;;;;;;;4.55;3.17;;;;;;;17.25;69.26;95608.97;4974287;28;20610;-82
2022/09/02 07:17:27;;;;;;;4.95;3.55;;;;;;;17.37;68.00;95601.22;4974807;28;20279;-82
2022/09/02 07:19:56;;;;;;;3.78;3.00;;;;;;;17.51;67.25;95602.66;4973381;28;20227;-83
2022/09/02 07:22:24;;;;;;;3.58;3.00;;;;;;;17.68;66.37;95605.50;4973324;28;20575;-83
2022/09/02 07:24:50;;;;;;;4.40;4.00;;;;;;;17.77;65.62;95604.16;4972607;28;20240;-82
2022/09/02 07:27:19;;;;;;;3.45;3.15;;;;;;;17.88;65.23;95610.44;4974064;28;20290;-82
2022/09/02 07:29:47;;;;;;;4.35;3.58;;;;;;;17.83;65.03;95607.72;4973330;28;20231;-82
2022/09/02 07:32:14;;;;;;;3.95;3.10;;;;;;;17.96;64.47;95599.69;4973500;28;20223;-81
2022/09/02 07:34:41;;;;;;;4.60;3.22;;;;;;;18.13;64.39;95605.06;4973911;28;20207;-81
2022/09/02 07:37:07;;;;;;;3.15;2.95;;;;;;;18.26;63.70;95602.28;4971753;28;20203;-82
2022/09/02 07:39:35;;;;;;;3.22;2.92;;;;;;;18.36;62.69;95599.13;4971712;28;20251;-82
2022/09/02 07:42:02;;;;;;;4.82;2.85;;;;;;;18.41;61.72;95602.66;4971813;28;20204;-82
2022/09/02 07:44:29;;;;;;;3.28;2.97;;;;;;;18.39;61.92;95598.69;4971694;28;20843;-83
2022/09/02 07:46:56;;;;;;;6.10;2.60;;;;;;;18.62;61.08;95599.53;4971291;28;20216;-84
2022/09/02 07:49:23;;;;;;;2.67;2.47;;;;;;;18.70;60.49;95605.41;4971679;28;20602;-82
2022/09/02 07:51:50;;;;;;;2.95;2.53;;;;;;;18.86;60.44;95596.91;4970333;28;20258;-82
2022/09/02 07:54:19;;;;;;;2.97;2.78;;;;;;;18.89;58.95;95589.41;4971623;28;20204;-82
2022/09/02 07:56:48;;;;;;;2.97;2.40;;;;;;;19.08;59.30;95597.13;4971141;28;20314;-83
2022/09/02 07:59:15;;;;;;;2.53;2.33;;;;;;;19.24;58.18;95591.22;4974124;28;20224;-83
2022/09/02 08:01:42;;;;;;;2.60;2.40;;;;;;;19.46;57.63;95599.19;4973844;28;20197;-83
2022/09/02 08:04:09;;;;;;;3.85;2.50;;;;;;;19.55;57.08;95596.03;4979174;28;20291;-83
2022/09/02 08:06:36;;;;;;;2.78;2.58;;;;;;;19.74;56.74;95595.84;4978061;28;20837;-82
2022/09/02 08:09:05;;;;;;;3.55;2.33;;;;;;;19.94;56.61;95585.78;4977447;28;20219;-80
2022/09/02 08:11:35;;;;;;;2.40;2.20;;;;;;;20.08;55.65;95588.88;4976879;28;20262;-81
2022/09/02 08:14:03;;;;;;;2.85;2.13;;;;;;;20.11;53.34;95583.19;4978320;28;20738;-81
2022/09/02 08:16:31;;;;;;;2.63;2.42;;;;;;;19.85;53.82;95589.78;4976385;28;20227;-81
2022/09/02 08:18:57;;;;;;;2.60;2.40;;;;;;;20.09;54.01;95590.47;4977683;28;20247;-80
2022/09/02 08:21:24;;;;;;;2.95;2.25;;;;;;;20.15;53.37;95585.09;4977173;28;20231;-81
2022/09/02 08:23:50;;;;;;;2.15;1.95;;;;;;;20.31;54.13;95580.91;4978794;28;20204;-82
2022/09/02 08:26:17;;;;;;;1.77;1.67;;;;;;;20.50;52.81;95577.06;4977603;28;20236;-81
2022/09/02 08:28:44;;;;;;;3.45;2.05;;;;;;;20.69;50.96;95575.78;4978449;28;20224;-82
2022/09/02 08:31:12;;;;;;;2.10;1.90;;;;;;;20.87;50.17;95574.72;4977922;28;20294;-80
2022/09/02 08:33:38;;;;;;;4.28;1.60;;;;;;;21.06;49.82;95575.22;4978864;28;20200;-82
2022/09/02 08:36:07;;;;;;;3.15;1.50;;;;;;;20.96;48.04;95581.13;4977646;28;20236;-81
2022/09/02 08:38:35;;;;;;;3.05;1.67;;;;;;;20.97;47.79;95579.31;4977864;28;20240;-82
2022/09/02 08:41:02;;;;;;;2.30;2.10;;;;;;;21.00;47.53;95576.19;4958543;28;21014;-82
2022/09/02 08:43:38;;;;;;;1.67;1.50;;;;;;;20.87;46.21;95571.31;4959607;28;20208;-81
2022/09/02 08:46:07;;;;;;;1.60;1.50;;;;;;;21.14;45.45;95574.81;4958552;28;20236;-81
2022/09/02 08:48:39;;;;;;;2.00;1.42;;;;;;;21.17;44.07;95573.53;4957990;28;20209;-80
2022/09/02 08:51:09;;;;;;;1.48;1.33;;;;;;;21.06;43.90;95570.00;4956677;28;20215;-80
2022/09/02 08:53:45;;;;;;;1.55;1.45;;;;;;;21.06;44.71;95574.44;4957276;28;20201;-81
2022/09/02 08:56:17;;;;;;;2.17;1.50;;;;;;;21.18;43.06;95569.88;4957845;28;20315;-80
2022/09/02 08:58:46;;;;;;;1.30;1.20;;;;;;;21.13;43.83;95572.44;4956977;28;20263;-82
2022/09/02 09:01:23;;;;;;;1.30;1.20;;;;;;;21.40;42.72;95568.06;4955950;28;20245;-81
2022/09/02 09:04:13;;;;;;;2.33;1.25;;;;;;;21.64;42.79;95563.38;4957863;28;20201;-82
2022/09/02 09:06:53;;;;;;;1.40;1.30;;;;;;;21.85;42.55;95570.41;4953992;28;20240;-80
2022/09/02 09:09:26;;;;;;;4.50;1.40;;;;;;;22.05;41.74;95577.72;4969414;28;20957;-81
2022/09/02 09:12:01;;;;;;;1.38;1.27;;;;;;;22.17;41.57;95556.56;4974215;28;20208;-82
2022/09/02 09:14:37;;;;;;;1.20;1.13;;;;;;;22.13;40.43;95556.25;4973973;28;20288;-82
2022/09/02 09:17:14;;;;;;;1.50;1.40;;;;;;;22.16;40.49;95560.22;4975922;28;20195;-82
2022/09/02 09:19:48;;;;;;;2.38;1.70;;;;;;;21.87;42.00;95564.91;4974884;28;20734;-80
2022/09/02 09:22:19;;;;;;;3.15;1.30;;;;;;;21.86;41.71;95571.19;4975757;28;20204;-81
2022/09/02 09:24:48;;;;;;;1.33;1.20;;;;;;;21.92;41.10;95565.78;4976321;28;20711;-82
2022/09/02 09:27:17;;;;;;;1.63;1.40;;;;;;;22.01;40.59;95556.44;4975189;28;20216;-80
2022/09/02 09:29:44;;;;;;;1.20;1.10;;;;;;;22.14;41.06;95560.47;4973567;28;20224;-81
2022/09/02 09:32:20;;;;;;;1.70;1.30;;;;;;;22.23;41.58;95548.50;4973726;28;20668;-83
2022/09/02 09:35:01;;;;;;;1.38;1.27;;;;;;;22.38;41.14;95547.81;4972749;28;20234;-82
2022/09/02 09:37:31;;;;;;;1.63;1.40;;;;;;;22.42;40.24;95550.72;4967900;28;20196;-83
2022/09/02 09:39:57;;;;;;;2.95;1.33;;;;;;;22.28;40.54;95545.91;4972918;28;20235;-81
2022/09/02 09:42:32;;;;;;;1.45;1.35;;;;;;;22.20;40.14;95546.38;4972831;28;20196;-80
2022/09/02 09:44:59;;;;;;;1.52;1.42;;;;;;;22.16;41.04;95541.88;4973640;28;20310;-80
2022/09/02 09:47:26;;;;;;;1.38;1.27;;;;;;;22.20;41.27;95537.69;4973761;28;20220;-79
2022/09/02 09:50:09;;;;;;;1.40;1.30;;;;;;;22.49;40.81;95543.44;4972886;28;20283;-80
2022/09/02 09:52:38;;;;;;;1.20;1.10;;;;;;;22.51;39.88;95536.91;4974106;28;20258;-81
2022/09/02 09:55:18;;;;;;;1.38;1.27;;;;;;;22.53;39.93;95532.16;4972600;28;20298;-79
2022/09/02 09:57:47;;;;;;;2.08;1.40;;;;;;;22.70;40.92;95537.28;4973867;28;20582;-81
2022/09/02 10:00:20;;;;;;;2.38;1.48;;;;;;;22.72;39.77;95538.59;4973703;28;20262;-80
2022/09/02 10:02:49;;;;;;;2.53;1.13;;;;;;;22.73;40.64;95536.75;4974839;28;20269;-81
2022/09/02 10:05:35;;;;;;;1.40;1.30;;;;;;;22.57;40.49;95540.34;4974599;28;20248;-82
2022/09/02 10:08:05;;;;;;;1.88;1.50;;;;;;;22.81;40.07;95544.19;4973159;28;20238;-81
2022/09/02 10:10:34;;;;;;;1.80;1.30;;;;;;;22.83;40.61;95533.44;4968537;28;20310;-81
2022/09/02 10:13:16;;;;;;;1.77;1.52;;;;;;;22.69;40.56;95535.72;4974536;28;20654;-81
2022/09/02 10:15:54;;;;;;;2.35;1.40;;;;;;;22.69;40.34;95535.72;4974642;28;20235;-81
2022/09/02 10:18:31;;;;;;;2.08;1.40;;;;;;;22.86;40.00;95533.72;4971558;28;20204;-81
2022/09/02 10:21:03;;;;;;;2.00;1.60;;;;;;;22.89;40.36;95538.47;4972533;28;20660;-80
2022/09/02 10:23:45;;;;;;;2.10;1.30;;;;;;;23.09;40.32;95530.66;4974025;28;20192;-80
2022/09/02 10:26:24;;;;;;;2.45;1.42;;;;;;;23.02;39.32;95539.84;4973519;28;20227;-81
2022/09/02 10:29:17;;;;;;;1.58;1.48;;;;;;;22.81;39.56;95530.28;4971978;28;20679;-79
2022/09/02 10:31:55;;;;;;;1.40;1.30;;;;;;;22.78;39.88;95525.53;4966414;28;20211;-80
2022/09/02 10:34:31;;;;;;;1.10;1.10;;;;;;;22.71;40.03;95533.59;4969591;28;20199;-81
2022/09/02 10:37:11;;;;;;;4.10;1.50;;;;;;;22.88;40.30;95530.84;4970309;28;20223;-80
2022/09/02 10:39:57;;;;;;;3.40;1.55;;;;;;;23.03;40.96;95529.09;4973675;28;20216;-81
2022/09/02 10:42:40;;;;;;;2.47;1.38;;;;;;;22.95;39.63;95529.56;4971324;28;20200;-81
2022/09/02 10:45:16;;;;;;;1.25;1.10;;;;;;;23.12;39.31;95516.25;4972690;28;20246;-81
2022/09/02 10:47:50;;;;;;;1.35;1.25;;;;;;;23.08;38.96;95513.38;4973120;28;20224;-80
2022/09/02 10:50:22;;;;;;;1.60;1.33;;;;;;;22.84;39.29;95516.66;4971900;28;21753;-82
2022/09/02 10:53:32;;;;;;;1.25;1.10;;;;;;;22.70;39.65;95518.91;4972942;28;20204;-80
2022/09/02 10:56:03;;;;;;;1.30;1.20;;;;;;;22.88;39.76;95510.63;4971632;28;20228;-80
2022/09/02 10:58:39;;;;;;;2.30;1.40;;;;;;;22.88;39.89;95510.63;4971025;28;20201;-80
2022/09/02 11:01:08;;;;;;;2.53;1.30;;;;;;;22.80;39.83;95505.84;4971023;28;20261;-80
2022/09/02 11:03:41;;;;;;;1.20;1.10;;;;;;;22.84;38.70;95504.31;4972514;28;20283;-80
2022/09/02 11:06:12;;;;;;;1.33;1.23;;;;;;;22.81;40.27;95498.78;4971763;28;20284;-81
2022/09/02 11:08:42;;;;;;;1.50;1.10;;;;;;;22.83;39.07;95494.84;4966277;28;20570;-79
2022/09/02 11:11:20;;;;;;;1.35;1.10;;;;;;;22.75;39.22;95503.97;4959056;28;20207;-82
2022/09/02 11:13:56;;;;;;;2.92;1.38;;;;;;;22.79;39.13;95498.22;4967950;28;20199;-82
2022/09/02 11:16:28;;;;;;;1.17;1.00;;;;;;;22.78;39.32;95497.44;4970926;28;20223;-80
2022/09/02 11:19:01;;;;;;;1.67;1.27;;;;;;;22.70;39.01;95490.84;4971152;28;20225;-79
2022/09/02 11:21:37;;;;;;;1.67;1.35;;;;;;;22.90;40.13;95492.00;4965667;28;20557;-81
2022/09/02 11:24:08;;;;;;;3.15;1.30;;;;;;;23.07;39.28;95485.50;4971286;28;20206;-82
2022/09/02 11:26:40;;;;;;;1.67;1.13;;;;;;;23.19;39.80;95492.38;4970169;28;20252;-82
2022/09/02 11:29:12;;;;;;;4.05;1.40;;;;;;;23.08;38.05;95479.22;4974788;28;20903;-82
2022/09/02 11:31:43;;;;;;;3.88;1.33;;;;;;;23.10;40.29;95484.19;4968916;28;20199;-83
2022/09/02 11:34:20;;;;;;;2.15;1.10;;;;;;;23.16;39.47;95488.41;4970085;28;20197;-82
2022/09/02 11:36:49;;;;;;;1.95;1.38;;;;;;;23.18;38.22;95491.56;4968539;28;20235;-82
2022/09/02 11:39:21;;;;;;;1.10;1.00;;;;;;;23.00;38.18;95494.66;4968840;28;20211;-82
2022/09/02 11:42:06;;;;;;;1.58;1.30;;;;;;;22.90;38.84;95492.00;4969457;28;20204;-81
2022/09/02 11:45:09;;;;;;;1.20;1.10;;;;;;;23.15;39.03;95483.41;4964902;28;20292;-83
2022/09/02 11:47:49;;;;;;;1.55;1.15;;;;;;;23.16;38.70;95479.75;4968216;28;20215;-84